createdAt,value
2023-04-29T00:00:24.513Z,19.66
2023-04-29T00:01:25.888Z,19.71
2023-04-29T00:02:24.065Z,19.65
2023-04-29T00:03:24.466Z,19.57
2023-04-29T00:04:23.510Z,19.65
2023-04-29T00:05:24.422Z,19.72
2023-04-29T00:06:23.406Z,19.79
2023-04-29T00:07:23.489Z,19.80
2023-04-29T00:08:22.977Z,19.82
2023-04-29T00:09:23.559Z,19.76
2023-04-29T00:10:23.336Z,19.75
2023-04-29T00:11:23.002Z,19.73
2023-04-29T00:12:23.315Z,19.72
2023-04-29T00:13:23.124Z,19.62
2023-04-29T00:14:23.285Z,19.52
2023-04-29T00:15:23.849Z,19.54
2023-04-29T00:16:23.520Z,19.46
2023-04-29T00:17:23.586Z,19.38
2023-04-29T00:18:23.108Z,19.43
2023-04-29T00:19:23.582Z,19.45
2023-04-29T00:20:23.535Z,19.44
2023-04-29T00:21:23.287Z,19.39
2023-04-29T00:22:23.592Z,19.37
2023-04-29T00:23:23.419Z,19.30
2023-04-29T00:24:23.203Z,19.30
2023-04-29T00:25:23.549Z,19.30
2023-04-29T00:26:22.880Z,19.31
2023-04-29T00:27:23.324Z,19.21
2023-04-29T00:28:28.750Z,19.17
2023-04-29T00:29:23.225Z,19.15
2023-04-29T00:30:24.096Z,19.14
2023-04-29T00:31:23.613Z,19.09
2023-04-29T00:32:31.225Z,19.03
2023-04-29T00:33:23.816Z,19.01
2023-04-29T00:34:31.326Z,19.06
2023-04-29T00:35:23.645Z,19.09
2023-04-29T00:36:23.175Z,19.04
2023-04-29T00:37:23.560Z,19.03
2023-04-29T00:38:23.158Z,19.04
2023-04-29T00:39:23.392Z,19
2023-04-29T00:40:23.238Z,18.95
2023-04-29T00:41:23.741Z,18.95
2023-04-29T00:42:23.523Z,18.97
2023-04-29T00:43:23.329Z,18.96
2023-04-29T00:44:23.300Z,19.01
2023-04-29T00:45:23.242Z,18.93
2023-04-29T00:46:37.828Z,18.84
2023-04-29T00:47:23.197Z,18.78
2023-04-29T00:48:23.519Z,18.70
2023-04-29T00:49:23.063Z,18.70
2023-04-29T00:50:23.574Z,18.70
2023-04-29T00:51:22.918Z,18.67
2023-04-29T00:52:23.453Z,18.63
2023-04-29T00:53:23.146Z,18.65
2023-04-29T00:54:23.599Z,18.63
2023-04-29T00:55:23.231Z,18.64
2023-04-29T00:56:23.490Z,18.58
2023-04-29T00:57:23.326Z,18.51
2023-04-29T00:58:42.119Z,18.49
2023-04-29T00:59:23.646Z,18.55
2023-04-29T01:00:43.144Z,18.54
2023-04-29T01:01:23.195Z,18.70
2023-04-29T01:02:23.466Z,18.70
2023-04-29T01:03:23.523Z,18.66
2023-04-29T01:04:23.646Z,18.69
2023-04-29T01:05:23.322Z,18.72
2023-04-29T01:06:23.696Z,18.73
2023-04-29T01:07:23.031Z,18.70
2023-04-29T01:08:23.102Z,18.65
2023-04-29T01:09:23.826Z,18.70
2023-04-29T01:10:23.336Z,18.69
2023-04-29T01:11:23.578Z,18.67
2023-04-29T01:12:23.102Z,18.62
2023-04-29T01:13:23.658Z,18.58
2023-04-29T01:14:23.217Z,18.64
2023-04-29T01:15:23.673Z,18.60
2023-04-29T01:16:23.213Z,18.51
2023-04-29T01:17:23.482Z,18.54
2023-04-29T01:18:22.985Z,18.52
2023-04-29T01:19:23.167Z,18.45
2023-04-29T01:20:23.636Z,18.46
2023-04-29T01:21:23.256Z,18.46
2023-04-29T01:22:23.547Z,18.46
2023-04-29T01:23:23.349Z,18.48
2023-04-29T01:24:23.169Z,18.49
2023-04-29T01:25:23.120Z,18.44
2023-04-29T01:26:23.510Z,18.44
2023-04-29T01:27:22.987Z,18.45
2023-04-29T01:28:23.722Z,18.40
2023-04-29T01:29:23.853Z,18.38
2023-04-29T01:30:23.775Z,18.41
2023-04-29T01:31:23.569Z,18.43
2023-04-29T01:32:23.576Z,18.47
2023-04-29T01:33:23.348Z,18.51
2023-04-29T01:34:23.636Z,18.48
2023-04-29T01:35:23.176Z,18.39
2023-04-29T01:36:23.605Z,18.36
2023-04-29T01:37:23.234Z,18.37
2023-04-29T01:38:23.435Z,18.35
2023-04-29T01:39:23.103Z,18.39
2023-04-29T01:40:23.607Z,18.44
2023-04-29T01:41:23.092Z,18.50
2023-04-29T01:42:23.395Z,18.52
2023-04-29T01:43:23.088Z,18.52
2023-04-29T01:44:23.688Z,18.51
2023-04-29T01:45:23.459Z,18.49
2023-04-29T01:46:22.969Z,18.45
2023-04-29T01:47:23.431Z,18.43
2023-04-29T01:48:23.112Z,18.45
2023-04-29T01:49:23.510Z,18.40
2023-04-29T01:50:23.307Z,18.36
2023-04-29T01:51:22.950Z,18.36
2023-04-29T01:52:23.766Z,18.33
2023-04-29T01:53:23.048Z,18.34
2023-04-29T01:54:23.427Z,18.24
2023-04-29T01:55:23.090Z,18.25
2023-04-29T01:56:23.896Z,18.17
2023-04-29T01:57:23.489Z,18.23
2023-04-29T01:58:23.622Z,18.30
2023-04-29T01:59:23.189Z,18.31
2023-04-29T02:00:24.546Z,18.33
2023-04-29T02:01:23.277Z,18.19
2023-04-29T02:02:22.924Z,18.15
2023-04-29T02:03:23.807Z,18.11
2023-04-29T02:04:23.501Z,18.09
2023-04-29T02:05:23.247Z,18.09
2023-04-29T02:06:22.820Z,18.16
2023-04-29T02:07:23.257Z,18.21
2023-04-29T02:08:23.558Z,18.29
2023-04-29T02:09:23.100Z,18.31
2023-04-29T02:10:23.585Z,18.28
2023-04-29T02:11:23.158Z,18.20
2023-04-29T02:12:23.618Z,18.22
2023-04-29T02:13:23.081Z,18.29
2023-04-29T02:14:23.667Z,18.32
2023-04-29T02:15:23.209Z,18.36
2023-04-29T02:16:23.550Z,18.34
2023-04-29T02:17:23.597Z,18.34
2023-04-29T02:18:23.197Z,18.36
2023-04-29T02:19:22.906Z,18.44
2023-04-29T02:20:23.664Z,18.47
2023-04-29T02:21:23.523Z,18.39
2023-04-29T02:22:23.261Z,18.42
2023-04-29T02:23:23.716Z,18.43
2023-04-29T02:24:23.416Z,18.45
2023-04-29T02:25:23.332Z,18.51
2023-04-29T02:26:23.143Z,18.50
2023-04-29T02:27:23.468Z,18.45
2023-04-29T02:28:23.122Z,18.45
2023-04-29T02:29:23.653Z,18.50
2023-04-29T02:30:23.312Z,18.55
2023-04-29T02:31:23.291Z,18.55
2023-04-29T02:32:23.269Z,18.43
2023-04-29T02:33:23.058Z,18.42
2023-04-29T02:34:23.907Z,18.44
2023-04-29T02:35:23.323Z,18.43
2023-04-29T02:36:23.701Z,18.45
2023-04-29T02:37:23.168Z,18.45
2023-04-29T02:38:23.597Z,18.5
2023-04-29T02:39:23.229Z,18.43
2023-04-29T02:40:23.284Z,18.41
2023-04-29T02:41:22.950Z,18.36
2023-04-29T02:42:23.457Z,18.33
2023-04-29T02:43:23.300Z,18.39
2023-04-29T02:44:23.665Z,18.40
2023-04-29T02:45:23.598Z,18.34
2023-04-29T02:46:23.315Z,18.39
2023-04-29T02:47:23.175Z,18.38
2023-04-29T02:48:23.119Z,18.39
2023-04-29T02:49:22.790Z,18.30
2023-04-29T02:50:23.757Z,18.30
2023-04-29T02:51:23.410Z,18.28
2023-04-29T02:52:23.142Z,18.28
2023-04-29T02:53:23.764Z,18.29
2023-04-29T02:54:23.707Z,18.26
2023-04-29T02:55:23.547Z,18.22
2023-04-29T02:56:23.376Z,18.24
2023-04-29T02:57:23.353Z,18.23
2023-04-29T02:58:23.307Z,18.27
2023-04-29T02:59:31.021Z,18.32
2023-04-29T03:00:24.537Z,18.32
2023-04-29T03:01:31.429Z,18.29
2023-04-29T03:02:23.565Z,18.27
2023-04-29T03:03:23.778Z,18.27
2023-04-29T03:04:23.671Z,18.34
2023-04-29T03:05:23.488Z,18.26
2023-04-29T03:06:22.915Z,18.17
2023-04-29T03:07:23.466Z,18.18
2023-04-29T03:08:23.141Z,18.22
2023-04-29T03:09:23.815Z,18.24
2023-04-29T03:10:23.489Z,18.28
2023-04-29T03:11:23.175Z,18.27
2023-04-29T03:12:23.118Z,18.27
2023-04-29T03:13:23.013Z,18.29
2023-04-29T03:14:23.669Z,18.32
2023-04-29T03:15:23.798Z,18.26
2023-04-29T03:16:23.289Z,18.27
2023-04-29T03:17:23.197Z,18.31
2023-04-29T03:18:22.986Z,18.29
2023-04-29T03:19:23.543Z,18.29
2023-04-29T03:20:23.085Z,18.26
2023-04-29T03:21:23.752Z,18.23
2023-04-29T03:22:23.351Z,18.05
2023-04-29T03:23:22.914Z,18.07
2023-04-29T03:24:23.463Z,18.11
2023-04-29T03:25:23.034Z,18.17
2023-04-29T03:26:23.849Z,18.20
2023-04-29T03:27:23.657Z,18.21
2023-04-29T03:28:23.688Z,18.22
2023-04-29T03:29:23.466Z,18.28
2023-04-29T03:30:23.166Z,18.30
2023-04-29T03:31:23.178Z,18.31
2023-04-29T03:32:24.013Z,18.31
2023-04-29T03:33:23.620Z,18.32
2023-04-29T03:34:23.562Z,18.32
2023-04-29T03:35:23.424Z,18.28
2023-04-29T03:36:22.997Z,18.21
2023-04-29T03:37:23.398Z,18.17
2023-04-29T03:38:23.001Z,18.18
2023-04-29T03:39:23.480Z,18.13
2023-04-29T03:40:23.405Z,18.12
2023-04-29T03:41:22.752Z,18.12
2023-04-29T03:42:23.222Z,18.10
2023-04-29T03:43:23.000Z,18.04
2023-04-29T03:44:23.406Z,18.01
2023-04-29T03:45:23.080Z,18.03
2023-04-29T03:46:23.484Z,17.97
2023-04-29T03:47:23.117Z,17.93
2023-04-29T03:48:23.544Z,17.92
2023-04-29T03:49:23.258Z,17.87
2023-04-29T03:50:23.128Z,17.76
2023-04-29T03:51:23.402Z,17.70
2023-04-29T03:52:23.034Z,17.70
2023-04-29T03:53:23.553Z,17.70
2023-04-29T03:54:23.341Z,17.71
2023-04-29T03:55:23.626Z,17.83
2023-04-29T03:56:23.487Z,17.75
2023-04-29T03:57:23.573Z,17.64
2023-04-29T03:58:23.083Z,17.66
2023-04-29T03:59:23.529Z,17.64
2023-04-29T04:00:24.082Z,17.67
2023-04-29T04:01:23.663Z,17.63
2023-04-29T04:02:23.788Z,17.61
2023-04-29T04:03:23.483Z,17.57
2023-04-29T04:04:23.754Z,17.60
2023-04-29T04:05:24.028Z,17.59
2023-04-29T04:06:23.753Z,17.51
2023-04-29T04:07:23.279Z,17.48
2023-04-29T04:08:22.972Z,17.51
2023-04-29T04:09:23.631Z,17.50
2023-04-29T04:10:23.466Z,17.46
2023-04-29T04:11:22.881Z,17.43
2023-04-29T04:12:23.443Z,17.38
2023-04-29T04:13:23.010Z,17.31
2023-04-29T04:14:23.547Z,17.28
2023-04-29T04:15:23.043Z,17.34
2023-04-29T04:16:23.650Z,17.30
2023-04-29T04:17:23.499Z,17.29
2023-04-29T04:18:23.342Z,17.21
2023-04-29T04:19:23.089Z,17.14
2023-04-29T04:20:23.629Z,17.08
2023-04-29T04:21:23.068Z,17.13
2023-04-29T04:22:23.493Z,17.27
2023-04-29T04:23:23.330Z,17.20
2023-04-29T04:24:22.989Z,17.17
2023-04-29T04:25:24.139Z,17.20
2023-04-29T04:26:22.930Z,17.23
2023-04-29T04:27:23.771Z,17.27
2023-04-29T04:28:23.443Z,17.27
2023-04-29T04:29:23.212Z,17.22
2023-04-29T04:30:24.082Z,17.14
2023-04-29T04:31:23.268Z,17.13
2023-04-29T04:32:23.302Z,17.14
2023-04-29T04:33:23.227Z,17.15
2023-04-29T04:34:23.789Z,17.10
2023-04-29T04:35:23.409Z,17.06
2023-04-29T04:36:23.009Z,17.08
2023-04-29T04:38:26.891Z,17.01
2023-04-29T04:39:23.215Z,17.15
2023-04-29T04:40:23.893Z,17.27
2023-04-29T04:41:23.454Z,17.09
2023-04-29T04:42:23.190Z,17.02
2023-04-29T04:43:23.853Z,17.01
2023-04-29T04:44:23.761Z,16.93
2023-04-29T04:45:23.677Z,16.90
2023-04-29T04:46:23.397Z,16.85
2023-04-29T04:47:23.024Z,16.79
2023-04-29T04:48:23.170Z,16.73
2023-04-29T04:49:23.784Z,16.73
2023-04-29T04:50:23.853Z,16.73
2023-04-29T04:51:23.649Z,16.69
2023-04-29T04:52:23.607Z,16.64
2023-04-29T04:53:23.629Z,16.65
2023-04-29T04:54:23.255Z,16.64
2023-04-29T04:55:23.309Z,16.55
2023-04-29T04:56:22.996Z,16.50
2023-04-29T04:57:23.701Z,16.50
2023-04-29T04:58:23.567Z,16.49
2023-04-29T04:59:23.567Z,16.54
2023-04-29T05:00:24.419Z,16.51
2023-04-29T05:01:23.322Z,16.45
2023-04-29T05:02:23.988Z,16.39
2023-04-29T05:03:23.602Z,16.42
2023-04-29T05:04:23.366Z,16.48
2023-04-29T05:05:23.443Z,16.48
2023-04-29T05:06:23.273Z,16.51
2023-04-29T05:07:23.144Z,16.59
2023-04-29T05:08:23.833Z,16.54
2023-04-29T05:09:23.500Z,16.46
2023-04-29T05:10:23.743Z,16.45
2023-04-29T05:11:23.316Z,16.45
2023-04-29T05:12:23.132Z,16.42
2023-04-29T05:13:23.284Z,16.42
2023-04-29T05:14:23.949Z,16.33
2023-04-29T05:15:24.197Z,16.29
2023-04-29T05:16:23.222Z,16.28
2023-04-29T05:17:23.262Z,16.25
2023-04-29T05:18:23.068Z,16.29
2023-04-29T05:19:23.943Z,16.32
2023-04-29T05:20:28.851Z,16.28
2023-04-29T05:21:23.346Z,16.65
2023-04-29T05:22:28.276Z,16.57
2023-04-29T05:23:23.134Z,16.52
2023-04-29T05:24:24.047Z,16.45
2023-04-29T05:25:23.755Z,16.38
2023-04-29T05:26:23.714Z,16.31
2023-04-29T05:27:23.473Z,16.31
2023-04-29T05:28:23.236Z,16.34
2023-04-29T05:29:22.936Z,16.32
2023-04-29T05:30:23.934Z,16.34
2023-04-29T05:31:23.620Z,16.31
2023-04-29T05:32:37.227Z,16.31
2023-04-29T05:33:23.115Z,16.21
2023-04-29T05:34:37.747Z,16.13
2023-04-29T05:35:23.340Z,16.10
2023-04-29T05:36:22.971Z,16.11
2023-04-29T05:37:23.811Z,16.04
2023-04-29T05:38:23.527Z,16.01
2023-04-29T05:39:23.448Z,15.93
2023-04-29T05:40:23.566Z,15.94
2023-04-29T05:41:23.427Z,15.97
2023-04-29T05:42:23.183Z,16.04
2023-04-29T05:43:22.837Z,16.13
2023-04-29T05:44:23.983Z,16.11
2023-04-29T05:45:23.965Z,16.11
2023-04-29T05:46:23.765Z,16.07
2023-04-29T05:47:23.675Z,16.06
2023-04-29T05:48:23.673Z,16.02
2023-04-29T05:49:23.514Z,16.03
2023-04-29T05:50:23.233Z,15.93
2023-04-29T05:51:22.931Z,15.85
2023-04-29T05:52:23.620Z,15.92
2023-04-29T05:53:23.460Z,15.88
2023-04-29T05:54:23.144Z,15.88
2023-04-29T05:55:23.990Z,15.85
2023-04-29T05:56:23.657Z,15.88
2023-04-29T05:57:23.360Z,15.95
2023-04-29T05:58:23.093Z,15.97
2023-04-29T05:59:23.743Z,15.92
2023-04-29T06:00:46.639Z,15.97
2023-04-29T06:01:23.085Z,16.02
2023-04-29T06:02:23.799Z,16.07
2023-04-29T06:03:23.877Z,16.05
2023-04-29T06:04:23.463Z,16.01
2023-04-29T06:05:23.490Z,15.97
2023-04-29T06:06:23.293Z,15.92
2023-04-29T06:07:23.220Z,15.92
2023-04-29T06:08:23.794Z,15.88
2023-04-29T06:09:27.567Z,15.83
2023-04-29T06:10:23.772Z,15.81
2023-04-29T06:11:23.578Z,15.84
2023-04-29T06:12:23.238Z,15.88
2023-04-29T06:13:23.681Z,15.90
2023-04-29T06:14:23.542Z,15.94
2023-04-29T06:15:23.380Z,15.89
2023-04-29T06:16:23.040Z,15.87
2023-04-29T06:17:23.163Z,15.86
2023-04-29T06:19:27.113Z,15.93
2023-04-29T06:20:23.735Z,15.93
2023-04-29T06:21:23.398Z,15.97
2023-04-29T06:22:23.277Z,15.97
2023-04-29T06:23:22.958Z,15.96
2023-04-29T06:24:23.357Z,15.99
2023-04-29T06:25:23.390Z,15.98
2023-04-29T06:26:23.045Z,16.00
2023-04-29T06:27:23.642Z,16.12
2023-04-29T06:28:23.404Z,16.14
2023-04-29T06:29:22.827Z,16.10
2023-04-29T06:30:24.118Z,16.12
2023-04-29T06:31:23.620Z,16.12
2023-04-29T06:32:23.152Z,16.05
2023-04-29T06:33:23.005Z,16.05
2023-04-29T06:34:23.453Z,16.08
2023-04-29T06:35:22.891Z,16.04
2023-04-29T06:36:23.513Z,16.06
2023-04-29T06:37:23.290Z,16.05
2023-04-29T06:38:22.932Z,16.18
2023-04-29T06:39:23.530Z,16.20
2023-04-29T06:40:23.206Z,16.18
2023-04-29T06:41:23.169Z,16.26
2023-04-29T06:42:23.003Z,16.22
2023-04-29T06:43:23.581Z,16.21
2023-04-29T06:44:23.199Z,16.23
2023-04-29T06:45:23.141Z,16.29
2023-04-29T06:46:23.681Z,16.31
2023-04-29T06:47:23.509Z,16.29
2023-04-29T06:48:23.484Z,16.36
2023-04-29T06:49:23.083Z,16.28
2023-04-29T06:50:23.766Z,16.29
2023-04-29T06:51:23.802Z,16.27
2023-04-29T06:52:23.268Z,16.27
2023-04-29T06:53:22.974Z,16.40
2023-04-29T06:54:23.706Z,16.37
2023-04-29T06:55:23.692Z,16.33
2023-04-29T06:56:23.090Z,16.36
2023-04-29T06:57:23.136Z,16.39
2023-04-29T06:58:23.807Z,16.45
2023-04-29T06:59:23.587Z,16.47
2023-04-29T07:00:24.282Z,16.46
2023-04-29T07:01:23.357Z,16.45
2023-04-29T07:02:23.454Z,16.38
2023-04-29T07:03:24.136Z,16.36
2023-04-29T07:04:23.063Z,16.31
2023-04-29T07:05:23.101Z,16.31
2023-04-29T07:06:23.075Z,16.26
2023-04-29T07:07:23.755Z,16.23
2023-04-29T07:08:23.338Z,16.22
2023-04-29T07:09:23.300Z,16.21
2023-04-29T07:10:23.489Z,16.26
2023-04-29T07:11:23.105Z,16.21
2023-04-29T07:12:23.120Z,16.20
2023-04-29T07:13:23.763Z,16.13
2023-04-29T07:14:23.163Z,16.14
2023-04-29T07:15:23.038Z,16.27
2023-04-29T07:16:23.731Z,16.23
2023-04-29T07:17:23.785Z,16.20
2023-04-29T07:18:23.449Z,16.29
2023-04-29T07:19:23.204Z,16.41
2023-04-29T07:20:23.147Z,16.50
2023-04-29T07:21:23.056Z,16.55
2023-04-29T07:22:23.900Z,16.60
2023-04-29T07:23:23.654Z,16.66
2023-04-29T07:24:23.350Z,16.73
2023-04-29T07:25:23.179Z,16.73
2023-04-29T07:26:23.199Z,16.70
2023-04-29T07:27:23.239Z,16.70
2023-04-29T07:28:22.994Z,16.72
2023-04-29T07:29:23.592Z,16.75
2023-04-29T07:30:23.506Z,16.71
2023-04-29T07:31:23.433Z,16.73
2023-04-29T07:32:23.616Z,16.77
2023-04-29T07:33:23.523Z,16.80
2023-04-29T07:34:23.302Z,16.82
2023-04-29T07:35:23.340Z,16.82
2023-04-29T07:36:23.278Z,16.79
2023-04-29T07:37:23.142Z,16.79
2023-04-29T07:38:23.201Z,16.84
2023-04-29T07:39:23.136Z,16.86
2023-04-29T07:40:23.937Z,16.89
2023-04-29T07:41:23.590Z,16.93
2023-04-29T07:42:23.394Z,17.06
2023-04-29T07:43:23.246Z,17.04
2023-04-29T07:44:23.266Z,16.94
2023-04-29T07:45:23.403Z,16.86
2023-04-29T07:46:23.347Z,16.86
2023-04-29T07:47:23.447Z,16.87
2023-04-29T07:48:23.419Z,16.84
2023-04-29T07:49:23.435Z,16.79
2023-04-29T07:50:23.396Z,16.86
2023-04-29T07:51:23.264Z,16.84
2023-04-29T07:52:23.039Z,16.80
2023-04-29T07:53:24.063Z,16.78
2023-04-29T07:54:23.838Z,16.74
2023-04-29T07:55:23.323Z,16.75
2023-04-29T07:56:23.213Z,16.75
2023-04-29T07:57:23.273Z,16.76
2023-04-29T07:58:23.217Z,16.79
2023-04-29T07:59:23.583Z,16.71
2023-04-29T08:00:24.749Z,16.72
2023-04-29T08:01:37.768Z,16.70
2023-04-29T08:02:23.822Z,16.68
2023-04-29T08:03:23.606Z,16.72
2023-04-29T08:04:23.525Z,16.75
2023-04-29T08:05:38.264Z,16.79
2023-04-29T08:06:23.380Z,16.84
2023-04-29T08:07:23.490Z,16.79
2023-04-29T08:08:23.322Z,16.75
2023-04-29T08:09:23.456Z,16.85
2023-04-29T08:10:23.734Z,16.91
2023-04-29T08:11:23.998Z,16.92
2023-04-29T08:12:24.139Z,16.90
2023-04-29T08:13:23.896Z,16.90
2023-04-29T08:14:23.810Z,16.83
2023-04-29T08:15:23.937Z,16.83
2023-04-29T08:16:23.924Z,16.82
2023-04-29T08:17:23.622Z,16.80
2023-04-29T08:18:23.631Z,16.86
2023-04-29T08:19:23.647Z,17.04
2023-04-29T08:20:23.556Z,17.03
2023-04-29T08:21:45.285Z,17.04
2023-04-29T08:22:22.616Z,17.07
2023-04-29T08:23:23.391Z,17.11
2023-04-29T08:24:23.359Z,17.15
2023-04-29T08:25:23.752Z,17.17
2023-04-29T08:26:24.183Z,17.20
2023-04-29T08:27:23.841Z,17.27
2023-04-29T08:28:23.554Z,17.32
2023-04-29T08:29:23.481Z,17.29
2023-04-29T08:30:23.700Z,17.32
2023-04-29T08:31:23.615Z,17.36
2023-04-29T08:32:23.505Z,17.40
2023-04-29T08:33:23.601Z,17.41
2023-04-29T08:34:23.450Z,17.37
2023-04-29T08:35:23.462Z,17.32
2023-04-29T08:36:23.290Z,17.32
2023-04-29T08:37:23.145Z,17.38
2023-04-29T08:38:23.906Z,17.42
2023-04-29T08:39:23.561Z,17.47
2023-04-29T08:40:23.814Z,17.48
2023-04-29T08:41:23.955Z,17.5
2023-04-29T08:42:24.055Z,17.50
2023-04-29T08:43:23.802Z,17.54
2023-04-29T08:44:23.851Z,17.54
2023-04-29T08:45:23.907Z,17.56
2023-04-29T08:46:24.097Z,17.60
2023-04-29T08:47:23.485Z,17.65
2023-04-29T08:48:24.003Z,17.65
2023-04-29T08:49:23.200Z,17.65
2023-04-29T08:50:23.480Z,17.65
2023-04-29T08:51:23.332Z,17.70
2023-04-29T08:52:23.487Z,17.77
2023-04-29T08:53:23.716Z,17.75
2023-04-29T08:54:23.714Z,17.72
2023-04-29T08:55:23.755Z,17.70
2023-04-29T08:56:24.089Z,17.73
2023-04-29T08:57:23.639Z,17.73
2023-04-29T08:58:23.887Z,17.72
2023-04-29T08:59:23.894Z,17.72
2023-04-29T09:00:24.602Z,17.70
2023-04-29T09:01:23.877Z,17.72
2023-04-29T09:02:23.209Z,17.73
2023-04-29T09:03:23.486Z,17.72
2023-04-29T09:04:23.955Z,17.79
2023-04-29T09:05:23.412Z,17.81
2023-04-29T09:06:22.941Z,17.82
2023-04-29T09:07:23.967Z,17.87
2023-04-29T09:08:23.955Z,17.96
2023-04-29T09:09:23.906Z,17.92
2023-04-29T09:10:24.065Z,17.90
2023-04-29T09:11:23.979Z,17.84
2023-04-29T09:12:23.770Z,17.82
2023-04-29T09:13:23.777Z,17.80
2023-04-29T09:14:23.816Z,17.79
2023-04-29T09:15:24.271Z,17.78
2023-04-29T09:16:23.944Z,17.76
2023-04-29T09:17:23.231Z,17.69
2023-04-29T09:18:23.466Z,17.72
2023-04-29T09:19:23.426Z,17.75
2023-04-29T09:20:23.677Z,17.79
2023-04-29T09:21:23.763Z,17.81
2023-04-29T09:22:23.605Z,17.84
2023-04-29T09:23:23.420Z,17.88
2023-04-29T09:24:23.418Z,17.94
2023-04-29T09:25:24.274Z,17.92
2023-04-29T09:26:23.684Z,17.96
2023-04-29T09:27:24.049Z,17.99
2023-04-29T09:28:23.821Z,18.01
2023-04-29T09:29:23.631Z,17.95
2023-04-29T09:30:23.742Z,17.95
2023-04-29T09:31:23.861Z,17.98
2023-04-29T09:32:23.263Z,17.93
2023-04-29T09:33:23.471Z,17.93
2023-04-29T09:34:23.295Z,17.93
2023-04-29T09:35:23.545Z,17.90
2023-04-29T09:36:23.723Z,17.89
2023-04-29T09:37:23.831Z,17.88
2023-04-29T09:38:23.667Z,17.83
2023-04-29T09:39:23.831Z,17.81
2023-04-29T09:40:23.829Z,17.89
2023-04-29T09:41:23.088Z,17.94
2023-04-29T09:42:23.744Z,17.94
2023-04-29T09:43:23.701Z,17.98
2023-04-29T09:44:23.791Z,18
2023-04-29T09:45:23.887Z,18.10
2023-04-29T09:46:23.671Z,18.15
2023-04-29T09:47:23.763Z,18.14
2023-04-29T09:48:23.708Z,18.15
2023-04-29T09:49:23.526Z,18.14
2023-04-29T09:50:23.314Z,18.18
2023-04-29T09:51:23.525Z,18.16
2023-04-29T09:52:23.707Z,18.18
2023-04-29T09:53:23.364Z,18.18
2023-04-29T09:54:23.218Z,18.23
2023-04-29T09:55:23.522Z,18.28
2023-04-29T09:56:23.475Z,18.29
2023-04-29T09:57:23.821Z,18.37
2023-04-29T09:58:23.733Z,18.46
2023-04-29T09:59:23.524Z,18.52
2023-04-29T10:00:24.496Z,18.62
2023-04-29T10:01:23.490Z,18.72
2023-04-29T10:02:26.324Z,18.78
2023-04-29T10:07:21.447Z,19.21
2023-04-29T10:08:21.990Z,19.30
2023-04-29T10:09:21.700Z,19.40
2023-04-29T10:10:21.892Z,19.48
2023-04-29T10:11:21.549Z,19.55
2023-04-29T10:12:21.140Z,19.63
2023-04-29T10:13:21.702Z,19.70
2023-04-29T10:14:21.738Z,19.72
2023-04-29T10:15:22.048Z,19.74
2023-04-29T10:16:21.711Z,19.79
2023-04-29T10:17:21.471Z,19.77
2023-04-29T10:18:21.580Z,19.76
2023-04-29T10:19:21.389Z,19.72
2023-04-29T10:20:35.483Z,19.75
2023-04-29T10:21:21.116Z,19.79
2023-04-29T10:22:21.844Z,19.88
2023-04-29T10:23:21.327Z,19.96
2023-04-29T10:24:22.026Z,20.07
2023-04-29T10:25:21.923Z,20.20
2023-04-29T10:26:21.769Z,20.26
2023-04-29T10:27:22.234Z,20.36
2023-04-29T10:28:21.396Z,20.39
2023-04-29T10:29:21.970Z,20.56
2023-04-29T10:30:21.867Z,20.62
2023-04-29T10:31:21.664Z,20.67
2023-04-29T10:32:21.639Z,20.68
2023-04-29T10:33:21.613Z,20.75
2023-04-29T10:34:21.793Z,20.76
2023-04-29T10:35:21.994Z,20.86
2023-04-29T10:36:21.689Z,20.94
2023-04-29T10:37:21.320Z,20.97
2023-04-29T10:38:21.908Z,20.98
2023-04-29T10:39:21.609Z,20.96
2023-04-29T10:40:21.395Z,21.02
2023-04-29T10:41:21.299Z,21.03
2023-04-29T10:42:21.878Z,20.99
2023-04-29T10:43:21.376Z,20.96
2023-04-29T10:44:21.019Z,21.02
2023-04-29T10:45:21.890Z,21.05
2023-04-29T10:46:21.297Z,21.07
2023-04-29T10:47:21.918Z,21.10
2023-04-29T10:48:21.547Z,21.13
2023-04-29T10:49:22.087Z,21.19
2023-04-29T10:50:21.910Z,21.23
2023-04-29T10:51:21.596Z,21.27
2023-04-29T10:53:21.930Z,21.35
2023-04-29T10:54:21.494Z,21.36
2023-04-29T10:55:21.258Z,21.32
2023-04-29T10:56:21.862Z,21.32
2023-04-29T10:57:21.370Z,21.40
2023-04-29T10:58:21.203Z,21.45
2023-04-29T10:59:21.772Z,21.35
2023-04-29T11:00:22.324Z,21.26
2023-04-29T11:01:21.405Z,21.19
2023-04-29T11:02:21.339Z,21.09
2023-04-29T11:03:21.260Z,20.94
2023-04-29T11:04:21.489Z,20.91
2023-04-29T11:05:21.677Z,20.84
2023-04-29T11:06:21.597Z,20.79
2023-04-29T11:07:21.311Z,20.77
2023-04-29T11:08:21.300Z,20.69
2023-04-29T11:09:21.990Z,20.68
2023-04-29T11:10:22.069Z,20.69
2023-04-29T11:11:21.757Z,20.62
2023-04-29T11:12:21.352Z,20.57
2023-04-29T11:13:21.673Z,20.57
2023-04-29T11:14:21.320Z,20.55
2023-04-29T11:15:21.641Z,20.53
2023-04-29T11:16:21.306Z,20.45
2023-04-29T11:17:21.385Z,20.45
2023-04-29T11:18:21.608Z,20.42
2023-04-29T11:19:21.408Z,20.42
2023-04-29T11:20:21.422Z,20.37
2023-04-29T11:21:21.340Z,20.35
2023-04-29T11:22:21.300Z,20.22
2023-04-29T11:23:21.795Z,20.23
2023-04-29T11:24:21.633Z,20.22
2023-04-29T11:25:21.502Z,20.18
2023-04-29T11:26:21.867Z,20.18
2023-04-29T11:27:21.429Z,20.17
2023-04-29T11:28:21.363Z,20.21
2023-04-29T11:29:21.787Z,20.28
2023-04-29T11:30:21.770Z,20.15
2023-04-29T11:31:21.702Z,20.10
2023-04-29T11:32:21.947Z,20.07
2023-04-29T11:33:21.984Z,20.10
2023-04-29T11:34:21.763Z,20.09
2023-04-29T11:35:21.355Z,20.03
2023-04-29T11:36:21.768Z,19.91
2023-04-29T11:37:21.510Z,19.88
2023-04-29T11:38:22.370Z,19.78
2023-04-29T11:39:23.946Z,19.67
2023-04-29T11:40:23.901Z,19.59
2023-04-29T11:41:23.712Z,19.64
2023-04-29T11:42:23.566Z,19.71
2023-04-29T11:43:23.427Z,19.59
2023-04-29T11:44:23.290Z,19.39
2023-04-29T11:45:23.163Z,19.30
2023-04-29T11:46:23.224Z,19.25
2023-04-29T11:47:23.118Z,19.43
2023-04-29T11:48:23.613Z,19.32
2023-04-29T11:49:23.496Z,19.25
2023-04-29T11:50:23.508Z,19.21
2023-04-29T11:51:23.403Z,19.26
2023-04-29T11:52:23.419Z,19.49
2023-04-29T11:53:23.216Z,19.42
2023-04-29T11:54:23.961Z,19.30
2023-04-29T11:55:24.017Z,19.25
2023-04-29T11:56:22.912Z,19.20
2023-04-29T11:57:23.605Z,19.17
2023-04-29T11:58:23.469Z,19.20
2023-04-29T11:59:23.161Z,19.22
2023-04-29T12:00:24.598Z,19.29
2023-04-29T12:01:23.827Z,19.36
2023-04-29T12:02:23.561Z,19.46
2023-04-29T12:03:23.381Z,19.40
2023-04-29T12:04:23.378Z,19.34
2023-04-29T12:05:23.855Z,19.29
2023-04-29T12:06:23.620Z,19.29
2023-04-29T12:07:23.199Z,19.29
2023-04-29T12:08:23.198Z,19.29
2023-04-29T12:09:22.965Z,19.29
2023-04-29T12:10:23.915Z,19.28
2023-04-29T12:11:23.853Z,19.23
2023-04-29T12:12:23.798Z,19.32
2023-04-29T12:13:23.368Z,19.32
2023-04-29T12:14:23.023Z,19.30
2023-04-29T12:15:23.808Z,19.44
2023-04-29T12:16:23.818Z,19.37
2023-04-29T12:17:23.306Z,19.23
2023-04-29T12:18:23.040Z,19.19
2023-04-29T12:19:23.641Z,19.21
2023-04-29T12:20:23.535Z,19.22
2023-04-29T12:21:22.986Z,19.23
2023-04-29T12:22:23.643Z,19.20
2023-04-29T12:23:23.523Z,19.18
2023-04-29T12:24:23.034Z,19.18
2023-04-29T12:25:23.658Z,19.21
2023-04-29T12:26:23.394Z,19.19
2023-04-29T12:27:22.845Z,19.14
2023-04-29T12:28:23.299Z,19.20
2023-04-29T12:29:23.106Z,19.15
2023-04-29T12:30:23.801Z,19.07
2023-04-29T12:31:28.573Z,19.01
2023-04-29T12:32:23.470Z,19.00
2023-04-29T12:33:28.442Z,18.94
2023-04-29T12:34:23.061Z,18.95
2023-04-29T12:35:23.604Z,18.96
2023-04-29T12:36:23.423Z,18.97
2023-04-29T12:37:23.522Z,18.95
2023-04-29T12:38:23.564Z,18.97
2023-04-29T12:39:23.126Z,18.98
2023-04-29T12:40:23.868Z,18.90
2023-04-29T12:41:23.337Z,18.90
2023-04-29T12:42:23.050Z,18.86
2023-04-29T12:43:23.601Z,18.71
2023-04-29T12:44:23.357Z,18.71
2023-04-29T12:45:23.302Z,18.70
2023-04-29T12:46:23.674Z,18.70
2023-04-29T12:47:24.155Z,18.70
2023-04-29T12:48:30.073Z,18.69
2023-04-29T12:49:23.425Z,18.68
2023-04-29T12:50:24.127Z,18.70
2023-04-29T12:51:23.930Z,18.63
2023-04-29T12:52:23.428Z,18.57
2023-04-29T12:53:37.382Z,18.59
2023-04-29T12:54:23.165Z,18.63
2023-04-29T12:55:24.020Z,18.68
2023-04-29T12:56:23.297Z,18.74
2023-04-29T12:57:23.919Z,18.72
2023-04-29T12:58:23.861Z,18.72
2023-04-29T12:59:23.654Z,18.72